Alts de San Benito, Puerto Rico
Current Conditions -  °F | °C
As of 5:53 AM on Saturday 29 Nov 2014 (Local Time) from TJNR Reporting Station
Overcast Overcast  
Wind Chill: 74°   Ceiling: 2200
Heat Index: 74°   Visibility: 10mi
Dew Point: 72°   Wind: 5mph
Humidity: 93%   Direction: 330°NNW
Pressure: 29.96"   Gusts: NA
Location:  18.1494°N, 65.8294°W
Report Text: TJNR 290953Z AUTO 33004KT 10SM BKN022 BKN042 OVC060 23/22 A2996 RMK AO2 RAB0856E21 SLP146 P0001 T02330222 $
Loading
Personal Weather Stations






























Interactive Weather Map New forecast layout! Learn more

10-Day Weather Forecast

Advertisements
Track Severe Weather on mobile